createdAt,value
2017-07-30T00:00:17.040Z,1009.28
2017-07-30T00:00:57.930Z,1009.26
2017-07-30T00:01:38.826Z,1009.32
2017-07-30T00:02:19.735Z,1009.27
2017-07-30T00:03:00.618Z,1009.24
2017-07-30T00:03:41.508Z,1009.27
2017-07-30T00:04:22.414Z,1009.27
2017-07-30T00:05:03.317Z,1009.25
2017-07-30T00:05:44.223Z,1009.24
2017-07-30T00:06:25.114Z,1009.22
2017-07-30T00:07:06.011Z,1009.22
2017-07-30T00:07:46.932Z,1009.18
2017-07-30T00:08:27.801Z,1009.13
2017-07-30T00:09:08.697Z,1009.2
2017-07-30T00:09:49.592Z,1009.14
2017-07-30T00:10:30.492Z,1009.15
2017-07-30T00:11:11.383Z,1009.14
2017-07-30T00:11:52.274Z,1009.11
2017-07-30T00:12:33.164Z,1009.09
2017-07-30T00:13:14.055Z,1009.14
2017-07-30T00:13:54.959Z,1009.16
2017-07-30T00:14:35.845Z,1009.16
2017-07-30T00:15:16.751Z,1009.16
2017-07-30T00:15:57.641Z,1009.18
2017-07-30T00:16:38.534Z,1009.13
2017-07-30T00:17:19.433Z,1009.15
2017-07-30T00:18:00.328Z,1009.12
2017-07-30T00:18:41.225Z,1009.11
2017-07-30T00:19:22.122Z,1009.1
2017-07-30T00:20:03.011Z,1009.09
2017-07-30T00:20:43.907Z,1009.08
2017-07-30T00:21:24.805Z,1009.09
2017-07-30T00:22:05.689Z,1009.11
2017-07-30T00:22:46.598Z,1009.05
2017-07-30T00:23:27.504Z,1009.06
2017-07-30T00:24:08.384Z,1009.09
2017-07-30T00:24:49.286Z,1009.08
2017-07-30T00:25:30.175Z,1009.07
2017-07-30T00:26:11.070Z,1009.1
2017-07-30T00:26:51.974Z,1009.12
2017-07-30T00:27:32.874Z,1009.1
2017-07-30T00:28:13.766Z,1009.08
2017-07-30T00:28:54.658Z,1009.08
2017-07-30T00:29:35.547Z,1009.05
2017-07-30T00:30:16.441Z,1009.05
2017-07-30T00:30:57.334Z,1009.04
2017-07-30T00:31:38.233Z,1009.03
2017-07-30T00:32:19.121Z,1009.02
2017-07-30T00:33:00.011Z,1009.02
2017-07-30T00:33:40.916Z,1009.04
2017-07-30T00:34:21.824Z,1009.02
2017-07-30T00:35:02.703Z,1009.02
2017-07-30T00:35:43.600Z,1009.08
2017-07-30T00:36:24.496Z,1009.03
2017-07-30T00:37:05.377Z,1008.99
2017-07-30T00:37:46.264Z,1009
2017-07-30T00:38:27.169Z,1008.98
2017-07-30T00:39:08.058Z,1008.99
2017-07-30T00:39:48.962Z,1009
2017-07-30T00:40:29.848Z,1008.98
2017-07-30T00:41:10.735Z,1008.96
2017-07-30T00:41:51.641Z,1008.97
2017-07-30T00:42:32.527Z,1009
2017-07-30T00:43:13.436Z,1008.97
2017-07-30T00:43:54.339Z,1008.96
2017-07-30T00:44:35.255Z,1008.94
2017-07-30T00:45:16.158Z,1008.95
2017-07-30T00:45:57.049Z,1008.95
2017-07-30T00:46:37.954Z,1008.97
2017-07-30T00:47:18.846Z,1008.98
2017-07-30T00:47:59.742Z,1008.95
2017-07-30T00:48:40.638Z,1008.93
2017-07-30T00:49:21.524Z,1008.91
2017-07-30T00:50:02.422Z,1008.89
2017-07-30T00:50:43.329Z,1008.88
2017-07-30T00:51:24.214Z,1008.85
2017-07-30T00:52:05.120Z,1008.85
2017-07-30T00:52:46.010Z,1008.84
2017-07-30T00:53:26.905Z,1008.83
2017-07-30T00:55:45.850Z,1008.79
2017-07-30T00:56:26.760Z,1008.79
2017-07-30T00:57:07.657Z,1008.79
2017-07-30T00:57:48.549Z,1008.78
2017-07-30T00:58:29.444Z,1008.75
2017-07-30T00:59:10.328Z,1008.75
2017-07-30T00:59:51.260Z,1008.73
2017-07-30T01:00:32.154Z,1008.72
2017-07-30T01:01:13.051Z,1008.72
2017-07-30T01:01:53.946Z,1008.7
2017-07-30T01:02:34.831Z,1008.69
2017-07-30T01:03:15.736Z,1008.7
2017-07-30T01:03:56.630Z,1008.68
2017-07-30T01:04:37.534Z,1008.7
2017-07-30T01:05:18.438Z,1008.71
2017-07-30T01:05:59.320Z,1008.72
2017-07-30T01:06:40.218Z,1008.76
2017-07-30T01:07:21.122Z,1008.77
2017-07-30T01:08:02.000Z,1008.79
2017-07-30T01:08:42.898Z,1008.78
2017-07-30T01:09:23.791Z,1008.71
2017-07-30T01:10:04.676Z,1008.76
2017-07-30T01:10:45.581Z,1008.77
2017-07-30T01:11:26.474Z,1008.73
2017-07-30T01:12:07.365Z,1008.8
2017-07-30T01:12:48.257Z,1008.79
2017-07-30T01:13:29.151Z,1008.76
2017-07-30T01:14:10.040Z,1008.84
2017-07-30T01:14:50.942Z,1008.77
2017-07-30T01:15:31.832Z,1008.8
2017-07-30T01:16:12.732Z,1008.78
2017-07-30T01:16:53.626Z,1008.81
2017-07-30T01:17:34.522Z,1008.8
2017-07-30T01:18:15.410Z,1008.82
2017-07-30T01:18:56.315Z,1008.83
2017-07-30T01:19:37.205Z,1008.84
2017-07-30T01:20:18.101Z,1008.83
2017-07-30T01:20:58.988Z,1008.82
2017-07-30T01:21:39.877Z,1008.84
2017-07-30T01:22:20.777Z,1008.82
2017-07-30T01:23:01.665Z,1008.84
2017-07-30T01:23:42.555Z,1008.87
2017-07-30T01:24:23.446Z,1008.87
2017-07-30T01:25:04.340Z,1008.84
2017-07-30T01:25:45.225Z,1008.85
2017-07-30T01:26:26.116Z,1008.83
2017-07-30T01:27:07.011Z,1008.87
2017-07-30T01:27:47.900Z,1008.85
2017-07-30T01:28:28.790Z,1008.85
2017-07-30T01:29:09.689Z,1008.84
2017-07-30T01:29:50.586Z,1008.84
2017-07-30T01:30:31.461Z,1008.84
2017-07-30T01:31:12.363Z,1008.79
2017-07-30T01:31:53.249Z,1008.79
2017-07-30T01:32:34.142Z,1008.8
2017-07-30T01:33:15.040Z,1008.81
2017-07-30T01:33:55.928Z,1008.75
2017-07-30T01:34:36.835Z,1008.74
2017-07-30T01:35:17.729Z,1008.75
2017-07-30T01:35:58.617Z,1008.71
2017-07-30T01:36:39.522Z,1008.75
2017-07-30T01:37:20.417Z,1008.7
2017-07-30T01:38:01.308Z,1008.71
2017-07-30T01:38:42.224Z,1008.73
2017-07-30T01:39:23.109Z,1008.7
2017-07-30T01:40:04.007Z,1008.68
2017-07-30T01:40:44.903Z,1008.65
2017-07-30T01:41:25.793Z,1008.66
2017-07-30T01:42:06.689Z,1008.68
2017-07-30T01:42:47.581Z,1008.64
2017-07-30T01:43:28.448Z,1008.63
2017-07-30T01:44:09.367Z,1008.63
2017-07-30T01:44:50.252Z,1008.63
2017-07-30T01:45:31.142Z,1008.59
2017-07-30T01:46:12.036Z,1008.6
2017-07-30T01:46:52.925Z,1008.59
2017-07-30T01:47:33.819Z,1008.6
2017-07-30T01:48:14.722Z,1008.54
2017-07-30T01:48:55.611Z,1008.59
2017-07-30T01:49:36.508Z,1008.57
2017-07-30T01:50:17.408Z,1008.55
2017-07-30T01:50:58.308Z,1008.54
2017-07-30T01:51:39.208Z,1008.54
2017-07-30T01:52:20.103Z,1008.6
2017-07-30T01:53:00.994Z,1008.58
2017-07-30T01:53:41.893Z,1008.54
2017-07-30T01:54:22.780Z,1008.57
2017-07-30T01:55:03.659Z,1008.56
2017-07-30T01:55:44.555Z,1008.51
2017-07-30T01:56:25.444Z,1008.51
2017-07-30T01:57:06.337Z,1008.47
2017-07-30T01:57:47.235Z,1008.48
2017-07-30T01:58:28.131Z,1008.45
2017-07-30T01:59:09.023Z,1008.43
2017-07-30T01:59:49.927Z,1008.4
2017-07-30T02:00:30.816Z,1008.37
2017-07-30T02:01:11.716Z,1008.39
2017-07-30T02:01:52.600Z,1008.37
2017-07-30T02:02:33.489Z,1008.35
2017-07-30T02:03:14.392Z,1008.37
2017-07-30T02:03:55.285Z,1008.39
2017-07-30T02:04:36.177Z,1008.38
2017-07-30T02:05:17.073Z,1008.33
2017-07-30T02:05:57.962Z,1008.34
2017-07-30T02:06:38.850Z,1008.35
2017-07-30T02:07:19.754Z,1008.3
2017-07-30T02:08:00.638Z,1008.34
2017-07-30T02:08:41.538Z,1008.35
2017-07-30T02:09:22.427Z,1008.35
2017-07-30T02:10:03.315Z,1008.39
2017-07-30T02:10:44.198Z,1008.42
2017-07-30T02:11:25.093Z,1008.46
2017-07-30T02:12:05.989Z,1008.43
2017-07-30T02:12:46.880Z,1008.43
2017-07-30T02:13:27.766Z,1008.45
2017-07-30T02:14:08.662Z,1008.42
2017-07-30T02:14:49.536Z,1008.41
2017-07-30T02:15:30.413Z,1008.33
2017-07-30T02:16:11.305Z,1008.33
2017-07-30T02:16:52.193Z,1008.3
2017-07-30T02:17:33.081Z,1008.3
2017-07-30T02:18:13.963Z,1008.31
2017-07-30T02:18:54.876Z,1008.34
2017-07-30T02:19:35.753Z,1008.33
2017-07-30T02:20:16.669Z,1008.38
2017-07-30T02:20:57.559Z,1008.38
2017-07-30T02:21:38.442Z,1008.41
2017-07-30T02:22:19.331Z,1008.43
2017-07-30T02:23:00.231Z,1008.46
2017-07-30T02:23:41.141Z,1008.44
2017-07-30T02:24:22.022Z,1008.4
2017-07-30T02:25:02.937Z,1008.43
2017-07-30T02:25:43.820Z,1008.37
2017-07-30T02:26:24.712Z,1008.37
2017-07-30T02:27:05.606Z,1008.36
2017-07-30T02:27:46.496Z,1008.37
2017-07-30T02:28:27.392Z,1008.42
2017-07-30T02:29:08.322Z,1008.43
2017-07-30T02:29:49.186Z,1008.47
2017-07-30T02:30:31.608Z,1008.48
2017-07-30T02:31:12.504Z,1008.51
2017-07-30T02:31:53.392Z,1008.53
2017-07-30T02:32:34.283Z,1008.5
2017-07-30T02:33:15.173Z,1008.51
2017-07-30T02:33:56.073Z,1008.44
2017-07-30T02:34:36.965Z,1008.41
2017-07-30T02:35:17.849Z,1008.4
2017-07-30T02:35:58.759Z,1008.41
2017-07-30T02:36:39.632Z,1008.4
2017-07-30T02:37:20.527Z,1008.41
2017-07-30T02:38:01.436Z,1008.36
2017-07-30T02:38:42.323Z,1008.37
2017-07-30T02:39:23.213Z,1008.38
2017-07-30T02:40:04.104Z,1008.41
2017-07-30T02:40:44.992Z,1008.38
2017-07-30T02:41:25.887Z,1008.36
2017-07-30T02:42:06.779Z,1008.35
2017-07-30T02:42:47.669Z,1008.34
2017-07-30T02:43:28.562Z,1008.33
2017-07-30T02:44:09.454Z,1008.3
2017-07-30T02:44:50.342Z,1008.35
2017-07-30T02:45:31.231Z,1008.33
2017-07-30T02:46:12.142Z,1008.36
2017-07-30T02:46:53.032Z,1008.35
2017-07-30T02:47:33.922Z,1008.35
2017-07-30T02:48:14.819Z,1008.38
2017-07-30T02:48:55.736Z,1008.37
2017-07-30T02:49:36.617Z,1008.39
2017-07-30T02:50:17.508Z,1008.38
2017-07-30T02:50:58.410Z,1008.38
2017-07-30T02:51:39.300Z,1008.4
2017-07-30T02:52:20.195Z,1008.37
2017-07-30T02:53:01.087Z,1008.41
2017-07-30T02:53:41.983Z,1008.42
2017-07-30T02:54:22.869Z,1008.4
2017-07-30T02:55:03.768Z,1008.43
2017-07-30T02:55:44.671Z,1008.4
2017-07-30T02:56:25.558Z,1008.36
2017-07-30T02:57:06.453Z,1008.4
2017-07-30T02:57:47.348Z,1008.41
2017-07-30T02:58:28.243Z,1008.43
2017-07-30T02:59:09.142Z,1008.43
2017-07-30T02:59:50.037Z,1008.42
2017-07-30T03:00:30.924Z,1008.37
2017-07-30T03:01:11.806Z,1008.39
2017-07-30T03:01:52.704Z,1008.36
2017-07-30T03:02:33.593Z,1008.37
2017-07-30T03:03:14.483Z,1008.32
2017-07-30T03:03:55.377Z,1008.33
2017-07-30T03:04:36.274Z,1008.29
2017-07-30T03:05:17.173Z,1008.32
2017-07-30T03:05:58.060Z,1008.28
2017-07-30T03:06:38.956Z,1008.27
2017-07-30T03:07:19.849Z,1008.25
2017-07-30T03:08:00.746Z,1008.24
2017-07-30T03:08:41.639Z,1008.25
2017-07-30T03:09:22.536Z,1008.22
2017-07-30T03:10:03.423Z,1008.21
2017-07-30T03:10:44.318Z,1008.19
2017-07-30T03:11:25.213Z,1008.13
2017-07-30T03:12:06.106Z,1008.12
2017-07-30T03:12:46.995Z,1008.13
2017-07-30T03:13:27.892Z,1008.09
2017-07-30T03:14:08.782Z,1008.08
2017-07-30T03:14:49.690Z,1008.07
2017-07-30T03:15:30.576Z,1008.05
2017-07-30T03:16:11.463Z,1008.04
2017-07-30T03:16:52.362Z,1008.1
2017-07-30T03:17:33.249Z,1008.1
2017-07-30T03:18:14.156Z,1008.14
2017-07-30T03:18:55.051Z,1008.14
2017-07-30T03:19:35.937Z,1008.18
2017-07-30T03:20:16.831Z,1008.13
2017-07-30T03:20:57.732Z,1008.11
2017-07-30T03:21:38.617Z,1008.15
2017-07-30T03:22:19.510Z,1008.11
2017-07-30T03:23:00.404Z,1008.11
2017-07-30T03:23:41.293Z,1008.12
2017-07-30T03:24:22.188Z,1008.13
2017-07-30T03:25:03.073Z,1008.07
2017-07-30T03:25:43.967Z,1008.11
2017-07-30T03:26:24.862Z,1008.09
2017-07-30T03:27:05.748Z,1008.15
2017-07-30T03:27:46.644Z,1008.12
2017-07-30T03:28:27.529Z,1008.12
2017-07-30T03:29:08.424Z,1008.16
2017-07-30T03:29:49.310Z,1008.18
2017-07-30T03:30:30.207Z,1008.18
2017-07-30T03:31:11.116Z,1008.12
2017-07-30T03:31:52.011Z,1008.14
2017-07-30T03:32:32.913Z,1008.17
2017-07-30T03:33:13.806Z,1008.17
2017-07-30T03:33:54.686Z,1008.15
2017-07-30T03:34:35.576Z,1008.15
2017-07-30T03:35:16.463Z,1008.14
2017-07-30T03:35:57.360Z,1008.16
2017-07-30T03:36:38.253Z,1008.15
2017-07-30T03:37:19.147Z,1008.17
2017-07-30T03:38:00.030Z,1008.12
2017-07-30T03:38:40.914Z,1008.13
2017-07-30T03:39:21.807Z,1008.13
2017-07-30T03:40:02.700Z,1008.06
2017-07-30T03:40:43.588Z,1008.05
2017-07-30T03:41:24.488Z,1008.02
2017-07-30T03:42:05.383Z,1008
2017-07-30T03:42:46.279Z,1008
2017-07-30T03:43:27.166Z,1007.99
2017-07-30T03:44:08.060Z,1007.96
2017-07-30T03:44:48.953Z,1008
2017-07-30T03:45:29.845Z,1007.99
2017-07-30T03:46:10.739Z,1008
2017-07-30T03:46:51.634Z,1007.99
2017-07-30T03:47:32.525Z,1007.98
2017-07-30T03:48:13.412Z,1007.95
2017-07-30T03:48:54.319Z,1007.98
2017-07-30T03:49:35.201Z,1007.99
2017-07-30T03:50:16.091Z,1008.02
2017-07-30T03:50:56.984Z,1008.05
2017-07-30T03:51:37.877Z,1007.99
2017-07-30T03:52:18.775Z,1008.02
2017-07-30T03:52:59.666Z,1008.05
2017-07-30T03:53:40.555Z,1007.97
2017-07-30T03:54:21.444Z,1008.01
2017-07-30T03:55:02.337Z,1008
2017-07-30T03:55:43.233Z,1008.02
2017-07-30T03:56:24.122Z,1007.98
2017-07-30T03:57:05.018Z,1008.01
2017-07-30T03:57:45.925Z,1008.01
2017-07-30T03:58:26.810Z,1008.03
2017-07-30T03:59:07.725Z,1008.03
2017-07-30T03:59:48.615Z,1008.02
2017-07-30T04:00:29.521Z,1008.02
2017-07-30T04:01:10.412Z,1008
2017-07-30T04:01:51.313Z,1007.98
2017-07-30T04:02:32.204Z,1007.99
2017-07-30T04:03:13.090Z,1007.97
2017-07-30T04:03:53.977Z,1007.97
2017-07-30T04:04:34.871Z,1007.97
2017-07-30T04:05:15.765Z,1007.97
2017-07-30T04:05:56.644Z,1007.95
2017-07-30T04:06:37.532Z,1007.95
2017-07-30T04:07:18.427Z,1007.93
2017-07-30T04:07:59.310Z,1007.92
2017-07-30T04:08:40.204Z,1007.97
2017-07-30T04:09:21.097Z,1007.96
2017-07-30T04:10:01.994Z,1007.98
2017-07-30T04:10:42.906Z,1007.96
2017-07-30T04:11:23.804Z,1008
2017-07-30T04:12:04.742Z,1008
2017-07-30T04:12:45.622Z,1008.03
2017-07-30T04:13:26.510Z,1007.99
2017-07-30T04:14:07.404Z,1008
2017-07-30T04:16:16.440Z,1008
2017-07-30T04:16:57.327Z,1008.01
2017-07-30T04:17:38.212Z,1008.01
2017-07-30T04:18:19.102Z,1007.97
2017-07-30T04:18:59.999Z,1007.93
2017-07-30T04:19:40.889Z,1007.96
2017-07-30T04:20:21.782Z,1007.91
2017-07-30T04:21:02.676Z,1007.92
2017-07-30T04:21:43.562Z,1007.91
2017-07-30T04:22:24.452Z,1007.91
2017-07-30T04:23:05.343Z,1007.89
2017-07-30T04:23:46.223Z,1007.89
2017-07-30T04:24:27.107Z,1007.89
2017-07-30T04:25:08.016Z,1007.89
2017-07-30T04:25:48.899Z,1007.89
2017-07-30T04:26:29.804Z,1007.91
2017-07-30T04:27:10.699Z,1007.9
2017-07-30T04:27:51.577Z,1007.91
2017-07-30T04:28:32.492Z,1007.85
2017-07-30T04:29:13.386Z,1007.85
2017-07-30T04:29:54.273Z,1007.84
2017-07-30T04:30:35.169Z,1007.86
2017-07-30T04:31:16.058Z,1007.83
2017-07-30T04:31:56.947Z,1007.83
2017-07-30T04:32:37.878Z,1007.82
2017-07-30T04:33:18.744Z,1007.81
2017-07-30T04:33:59.625Z,1007.78
2017-07-30T04:34:40.527Z,1007.79
2017-07-30T04:35:21.417Z,1007.8
2017-07-30T04:36:02.298Z,1007.78
2017-07-30T04:36:43.199Z,1007.79
2017-07-30T04:37:24.092Z,1007.75
2017-07-30T04:38:04.987Z,1007.8
2017-07-30T04:38:45.881Z,1007.77
2017-07-30T04:39:26.762Z,1007.76
2017-07-30T04:40:07.641Z,1007.76
2017-07-30T04:40:48.548Z,1007.74
2017-07-30T04:41:29.473Z,1007.74
2017-07-30T04:42:10.361Z,1007.76
2017-07-30T04:42:51.257Z,1007.74
2017-07-30T04:43:32.148Z,1007.78
2017-07-30T04:44:13.035Z,1007.79
2017-07-30T04:44:53.952Z,1007.78
2017-07-30T04:45:34.852Z,1007.79
2017-07-30T04:46:15.748Z,1007.81
2017-07-30T04:46:56.642Z,1007.78
2017-07-30T04:47:37.544Z,1007.76
2017-07-30T04:48:18.425Z,1007.72
2017-07-30T04:48:59.321Z,1007.73
2017-07-30T04:49:40.219Z,1007.69
2017-07-30T04:50:21.104Z,1007.69
2017-07-30T04:51:02.028Z,1007.71
2017-07-30T04:51:42.914Z,1007.7
2017-07-30T04:52:23.798Z,1007.66
2017-07-30T04:53:04.692Z,1007.67
2017-07-30T04:53:45.614Z,1007.68
2017-07-30T04:54:26.511Z,1007.7
2017-07-30T04:55:07.397Z,1007.65
2017-07-30T04:55:48.282Z,1007.69
2017-07-30T04:56:29.183Z,1007.7
2017-07-30T04:57:10.067Z,1007.73
2017-07-30T04:57:50.953Z,1007.69
2017-07-30T04:58:31.846Z,1007.75
2017-07-30T04:59:12.746Z,1007.7
2017-07-30T04:59:53.630Z,1007.68
2017-07-30T05:00:34.536Z,1007.69
2017-07-30T05:01:16.268Z,1007.7
2017-07-30T05:01:57.197Z,1007.69
2017-07-30T05:02:38.083Z,1007.69
2017-07-30T05:03:18.974Z,1007.68
2017-07-30T05:03:59.877Z,1007.67
2017-07-30T05:04:40.764Z,1007.63
2017-07-30T05:05:21.649Z,1007.64
2017-07-30T05:06:02.545Z,1007.62
2017-07-30T05:06:43.441Z,1007.63
2017-07-30T05:07:24.330Z,1007.64
2017-07-30T05:08:05.223Z,1007.63
2017-07-30T05:08:46.123Z,1007.63
2017-07-30T05:09:27.007Z,1007.6
2017-07-30T05:10:07.902Z,1007.62
2017-07-30T05:10:48.786Z,1007.64
2017-07-30T05:11:29.672Z,1007.68
2017-07-30T05:12:10.562Z,1007.67
2017-07-30T05:12:51.453Z,1007.67
2017-07-30T05:13:32.337Z,1007.69
2017-07-30T05:14:13.245Z,1007.71
2017-07-30T05:14:54.124Z,1007.7
2017-07-30T05:15:35.013Z,1007.71
2017-07-30T05:16:15.914Z,1007.72
2017-07-30T05:16:56.805Z,1007.76
2017-07-30T05:17:37.700Z,1007.76
2017-07-30T05:18:18.590Z,1007.72
2017-07-30T05:18:59.479Z,1007.76
2017-07-30T05:19:40.362Z,1007.78
2017-07-30T05:20:21.253Z,1007.73
2017-07-30T05:21:02.145Z,1007.72
2017-07-30T05:21:43.039Z,1007.71
2017-07-30T05:22:23.930Z,1007.72
2017-07-30T05:23:04.820Z,1007.68
2017-07-30T05:23:45.715Z,1007.66
2017-07-30T05:24:26.610Z,1007.66
2017-07-30T05:25:07.491Z,1007.65
2017-07-30T05:25:48.393Z,1007.68
2017-07-30T05:26:29.291Z,1007.69
2017-07-30T05:27:10.189Z,1007.69
2017-07-30T05:27:51.077Z,1007.71
2017-07-30T05:28:31.971Z,1007.69
2017-07-30T05:29:12.860Z,1007.7
2017-07-30T05:29:53.753Z,1007.69
2017-07-30T05:30:34.649Z,1007.72
2017-07-30T05:31:15.536Z,1007.69
2017-07-30T05:31:56.435Z,1007.69
2017-07-30T05:32:37.316Z,1007.67
2017-07-30T05:33:18.212Z,1007.66
2017-07-30T05:33:59.109Z,1007.68
2017-07-30T05:34:39.993Z,1007.65
2017-07-30T05:35:20.892Z,1007.63
2017-07-30T05:36:01.785Z,1007.62
2017-07-30T05:36:42.684Z,1007.61
2017-07-30T05:37:23.575Z,1007.61
2017-07-30T05:38:04.483Z,1007.58
2017-07-30T05:38:45.385Z,1007.6
2017-07-30T05:39:26.270Z,1007.57
2017-07-30T05:40:07.299Z,1007.61
2017-07-30T05:40:48.160Z,1007.6
2017-07-30T05:41:29.059Z,1007.58
2017-07-30T05:42:09.942Z,1007.6
2017-07-30T05:42:50.836Z,1007.53
2017-07-30T05:43:31.730Z,1007.52
2017-07-30T05:44:12.615Z,1007.5
2017-07-30T05:44:53.506Z,1007.49
2017-07-30T05:45:34.476Z,1007.49
2017-07-30T05:46:15.366Z,1007.49
2017-07-30T05:46:56.512Z,1007.5
2017-07-30T05:47:37.553Z,1007.47
2017-07-30T05:48:18.456Z,1007.46
2017-07-30T05:48:59.336Z,1007.44
2017-07-30T05:49:40.226Z,1007.45
2017-07-30T05:50:21.130Z,1007.42
2017-07-30T05:51:02.023Z,1007.4
2017-07-30T05:51:42.916Z,1007.36
2017-07-30T05:52:23.793Z,1007.38
2017-07-30T05:53:04.716Z,1007.28
2017-07-30T05:53:45.651Z,1007.27
2017-07-30T05:54:26.540Z,1007.27
2017-07-30T05:55:07.428Z,1007.26
2017-07-30T05:55:48.332Z,1007.26
2017-07-30T05:56:29.229Z,1007.28
2017-07-30T05:57:10.122Z,1007.25
2017-07-30T05:57:51.007Z,1007.25
2017-07-30T05:58:31.906Z,1007.28
2017-07-30T05:59:12.802Z,1007.23
2017-07-30T05:59:53.695Z,1007.21
2017-07-30T06:00:34.588Z,1007.23
2017-07-30T06:01:15.482Z,1007.22
2017-07-30T06:01:56.370Z,1007.22
2017-07-30T06:02:37.260Z,1007.22
2017-07-30T06:03:18.156Z,1007.22
2017-07-30T06:03:59.049Z,1007.17
2017-07-30T06:04:39.945Z,1007.14
2017-07-30T06:05:20.837Z,1007.13
2017-07-30T06:06:01.734Z,1007.12
2017-07-30T06:06:42.632Z,1007.09
2017-07-30T06:07:23.522Z,1007.11
2017-07-30T06:08:04.409Z,1007.09
2017-07-30T06:08:45.296Z,1007.09
2017-07-30T06:09:26.190Z,1007.09
2017-07-30T06:10:07.089Z,1007.09
2017-07-30T06:10:47.984Z,1007.1
2017-07-30T06:11:28.896Z,1007.12
2017-07-30T06:12:09.756Z,1007.12
2017-07-30T06:12:50.647Z,1007.08
2017-07-30T06:13:31.539Z,1007.13
2017-07-30T06:14:12.429Z,1007.12
2017-07-30T06:14:53.338Z,1007.1
2017-07-30T06:15:34.225Z,1007.07
2017-07-30T06:16:15.120Z,1007.07
2017-07-30T06:16:56.013Z,1007.09
2017-07-30T06:17:36.934Z,1007.06
2017-07-30T06:18:17.846Z,1007.07
2017-07-30T06:18:58.730Z,1007.07
2017-07-30T06:19:39.627Z,1007.1
2017-07-30T06:20:20.522Z,1007.1
2017-07-30T06:21:01.418Z,1007.11
2017-07-30T06:21:42.318Z,1007.12
2017-07-30T06:22:23.214Z,1007.12
2017-07-30T06:23:04.110Z,1007.14
2017-07-30T06:23:45.015Z,1007.18
2017-07-30T06:24:25.904Z,1007.16
2017-07-30T06:25:06.892Z,1007.12
2017-07-30T06:25:47.707Z,1007.15
2017-07-30T06:26:28.600Z,1007.15
2017-07-30T06:27:09.501Z,1007.12
2017-07-30T06:27:50.393Z,1007.11
2017-07-30T06:28:31.288Z,1007.15
2017-07-30T06:29:12.187Z,1007.1
2017-07-30T06:29:53.092Z,1007.08
2017-07-30T06:30:33.975Z,1007.14
2017-07-30T06:31:14.878Z,1007.13
2017-07-30T06:31:55.781Z,1007.05
2017-07-30T06:32:36.678Z,1007.07
2017-07-30T06:33:17.572Z,1007.04
2017-07-30T06:33:58.462Z,1007.03
2017-07-30T06:34:39.359Z,1006.98
2017-07-30T06:35:20.266Z,1006.99
2017-07-30T06:36:01.148Z,1006.98
2017-07-30T06:36:42.033Z,1006.95
2017-07-30T06:37:22.913Z,1006.96
2017-07-30T06:38:03.822Z,1006.98
2017-07-30T06:38:44.690Z,1006.96
2017-07-30T06:39:25.562Z,1006.95
2017-07-30T06:40:06.423Z,1006.95
2017-07-30T06:40:47.298Z,1006.98
2017-07-30T06:41:28.203Z,1007.01
2017-07-30T06:42:09.079Z,1007.02
2017-07-30T06:42:49.957Z,1007.04
2017-07-30T06:43:30.832Z,1007.07
2017-07-30T06:44:11.730Z,1007.03
2017-07-30T06:44:52.610Z,1007.02
2017-07-30T06:45:33.497Z,1006.97
2017-07-30T06:46:14.392Z,1006.97
2017-07-30T06:46:55.433Z,1006.96
2017-07-30T06:47:36.342Z,1006.95
2017-07-30T06:48:17.226Z,1006.95
2017-07-30T06:48:58.091Z,1006.93
2017-07-30T06:49:38.966Z,1006.89
2017-07-30T06:50:19.858Z,1006.88
2017-07-30T06:51:00.744Z,1006.89
2017-07-30T06:52:39.209Z,1006.86
2017-07-30T06:53:20.110Z,1006.89
2017-07-30T06:54:01.043Z,1006.9
2017-07-30T06:54:41.928Z,1006.88
2017-07-30T06:55:22.794Z,1006.9
2017-07-30T06:56:03.721Z,1006.81
2017-07-30T06:56:44.601Z,1006.83
2017-07-30T06:57:25.513Z,1006.76
2017-07-30T06:58:06.442Z,1006.83
2017-07-30T06:58:47.334Z,1006.81
2017-07-30T06:59:28.259Z,1006.78
2017-07-30T07:00:09.166Z,1006.78
2017-07-30T07:00:50.061Z,1006.83
2017-07-30T07:01:30.939Z,1006.77
2017-07-30T07:02:11.818Z,1006.75
2017-07-30T07:02:52.722Z,1006.81
2017-07-30T07:03:33.619Z,1006.74
2017-07-30T07:04:14.530Z,1006.78
2017-07-30T07:04:55.425Z,1006.78
2017-07-30T07:05:36.294Z,1006.77
2017-07-30T07:06:17.199Z,1006.72
2017-07-30T07:06:58.093Z,1006.75
2017-07-30T07:07:39.020Z,1006.75
2017-07-30T07:08:19.922Z,1006.73
2017-07-30T07:09:00.807Z,1006.75
2017-07-30T07:09:41.718Z,1006.75
2017-07-30T07:10:22.605Z,1006.72
2017-07-30T07:11:03.518Z,1006.73
2017-07-30T07:11:44.417Z,1006.78
2017-07-30T07:12:25.341Z,1006.75
2017-07-30T07:13:06.219Z,1006.72
2017-07-30T07:13:47.094Z,1006.72
2017-07-30T07:14:27.990Z,1006.74
2017-07-30T07:15:08.882Z,1006.7
2017-07-30T07:15:49.779Z,1006.72
2017-07-30T07:16:30.716Z,1006.71
2017-07-30T07:17:11.614Z,1006.65
2017-07-30T07:17:52.514Z,1006.69
2017-07-30T07:18:33.460Z,1006.71
2017-07-30T07:19:14.352Z,1006.68
2017-07-30T07:19:55.278Z,1006.62
2017-07-30T07:20:36.157Z,1006.62
2017-07-30T07:21:17.050Z,1006.6
2017-07-30T07:21:57.962Z,1006.57
2017-07-30T07:22:38.857Z,1006.56
2017-07-30T07:23:19.770Z,1006.6
2017-07-30T07:24:00.670Z,1006.64
2017-07-30T07:24:41.562Z,1006.64
2017-07-30T07:25:22.467Z,1006.64
2017-07-30T07:26:03.367Z,1006.66
2017-07-30T07:26:44.265Z,1006.64
2017-07-30T07:27:25.149Z,1006.65
2017-07-30T07:28:06.064Z,1006.65
2017-07-30T07:28:46.960Z,1006.66
2017-07-30T07:29:27.856Z,1006.63
2017-07-30T07:30:08.735Z,1006.64
2017-07-30T07:30:49.634Z,1006.57
2017-07-30T07:31:30.538Z,1006.58
2017-07-30T07:32:11.441Z,1006.59
2017-07-30T07:32:52.337Z,1006.61
2017-07-30T07:33:33.213Z,1006.6
2017-07-30T07:34:14.105Z,1006.64
2017-07-30T07:34:55.016Z,1006.58
2017-07-30T07:35:35.928Z,1006.61
2017-07-30T07:36:16.813Z,1006.61
2017-07-30T07:36:57.692Z,1006.54
2017-07-30T07:37:38.611Z,1006.57
2017-07-30T07:38:19.492Z,1006.53
2017-07-30T07:39:00.397Z,1006.55
2017-07-30T07:39:41.303Z,1006.55
2017-07-30T07:40:22.198Z,1006.52
2017-07-30T07:41:03.101Z,1006.5
2017-07-30T07:41:44.008Z,1006.46
2017-07-30T07:42:24.919Z,1006.49
2017-07-30T07:43:05.818Z,1006.45
2017-07-30T07:43:46.710Z,1006.44
2017-07-30T07:44:27.603Z,1006.47
2017-07-30T07:45:08.525Z,1006.42
2017-07-30T07:45:49.429Z,1006.43
2017-07-30T07:46:30.327Z,1006.44
2017-07-30T07:47:11.241Z,1006.42
2017-07-30T07:47:52.139Z,1006.43
2017-07-30T07:48:33.049Z,1006.42
2017-07-30T07:49:13.936Z,1006.41
2017-07-30T07:49:54.849Z,1006.43
2017-07-30T07:50:35.756Z,1006.41
2017-07-30T07:51:16.677Z,1006.41
2017-07-30T07:51:57.584Z,1006.38
2017-07-30T07:52:38.475Z,1006.45
2017-07-30T07:53:19.377Z,1006.42
2017-07-30T07:54:00.279Z,1006.47
2017-07-30T07:54:41.171Z,1006.44
2017-07-30T07:55:22.066Z,1006.47
2017-07-30T07:56:02.966Z,1006.42
2017-07-30T07:56:43.873Z,1006.44
2017-07-30T07:57:24.770Z,1006.37
2017-07-30T07:58:05.669Z,1006.37
2017-07-30T07:58:46.578Z,1006.38
2017-07-30T07:59:27.489Z,1006.44
2017-07-30T08:01:21.166Z,1006.36
2017-07-30T08:02:02.062Z,1006.39
2017-07-30T08:02:42.965Z,1006.4
2017-07-30T08:03:23.867Z,1006.38
2017-07-30T08:04:04.791Z,1006.39
2017-07-30T08:04:45.688Z,1006.43
2017-07-30T08:05:26.578Z,1006.38
2017-07-30T08:06:07.471Z,1006.4
2017-07-30T08:06:48.364Z,1006.39
2017-07-30T08:07:29.290Z,1006.38
2017-07-30T08:08:10.182Z,1006.4
2017-07-30T08:08:51.099Z,1006.38
2017-07-30T08:09:32.013Z,1006.39
2017-07-30T08:10:12.927Z,1006.37
2017-07-30T08:10:53.817Z,1006.37
2017-07-30T08:11:34.725Z,1006.34
2017-07-30T08:12:15.617Z,1006.37
2017-07-30T08:12:56.522Z,1006.33
2017-07-30T08:13:37.431Z,1006.43
2017-07-30T08:14:18.316Z,1006.36
2017-07-30T08:14:59.239Z,1006.42
2017-07-30T08:15:40.156Z,1006.44
2017-07-30T08:16:21.093Z,1006.36
2017-07-30T08:17:02.006Z,1006.44
2017-07-30T08:17:42.988Z,1006.46
2017-07-30T08:18:23.894Z,1006.42
2017-07-30T08:19:04.865Z,1006.46
2017-07-30T08:19:45.773Z,1006.39
2017-07-30T08:20:26.678Z,1006.43
2017-07-30T08:21:07.587Z,1006.38
2017-07-30T08:21:48.492Z,1006.41